Time;durP1;ratioP1;P1;durP2;ratioP2;P2;SDS_P1;SDS_P2;PMS_P1;PMS_P2;Temp;Humidity;BMP_temperature;BMP_pressure;BME280_temperature;BME280_humidity;BME280_pressure;Samples;Min_cycle;Max_cycle;Signal;HPM_P1;HPM_P2
2022/01/23 00:02:27;;;;;;;46.92;20.05;;;;;;;5.35;100.00;103483.53;5018259;28;20034;-70
2022/01/23 00:04:54;;;;;;;62.78;23.80;;;;;;;5.30;100.00;103483.31;5018490;28;20073;-69
2022/01/23 00:07:20;;;;;;;75.60;29.85;;;;;;;5.20;100.00;103482.84;5018618;28;20041;-70
2022/01/23 00:09:46;;;;;;;77.57;30.23;;;;;;;5.31;100.00;103478.72;5018188;28;20052;-70
2022/01/23 00:12:16;;;;;;;89.22;34.55;;;;;;;5.26;100.00;103481.19;5017920;28;20033;-70
2022/01/23 00:17:33;;;;;;;95.32;36.78;;;;;;;5.25;100.00;103469.53;5019008;28;20041;-70
2022/01/23 00:20:00;;;;;;;99.03;38.35;;;;;;;5.20;100.00;103467.44;5029658;28;20129;-71
2022/01/23 00:22:37;;;;;;;97.93;38.83;;;;;;;5.32;100.00;103467.69;5038863;28;20041;-70
2022/01/23 00:30:33;;;;;;;106.22;39.47;;;;;;;5.35;100.00;103464.59;5038689;28;20731;-69
2022/01/23 00:33:06;;;;;;;106.65;38.92;;;;;;;5.29;100.00;103475.38;5038400;28;20118;-70
2022/01/23 00:35:33;;;;;;;110.97;41.90;;;;;;;5.30;100.00;103486.00;5036427;28;20033;-71
2022/01/23 00:37:59;;;;;;;106.95;40.25;;;;;;;5.31;100.00;103484.97;5054018;28;20086;-70
2022/01/23 00:40:27;;;;;;;119.78;43.60;;;;;;;5.32;100.00;103481.22;5037101;28;20549;-70
2022/01/23 00:42:58;;;;;;;110.50;43.35;;;;;;;5.46;100.00;103482.09;5038187;28;20114;-69
2022/01/23 00:48:06;;;;;;;118.25;44.08;;;;;;;5.44;100.00;103490.41;5037360;28;20057;-71
2022/01/23 00:50:37;;;;;;;129.57;47.97;;;;;;;5.38;100.00;103488.53;5036644;28;20657;-70
2022/01/23 00:53:05;;;;;;;134.48;48.45;;;;;;;5.43;100.00;103486.03;5036757;28;20345;-69
2022/01/23 00:55:30;;;;;;;119.40;47.55;;;;;;;5.39;100.00;103490.19;5035941;28;20033;-70
2022/01/23 00:57:56;;;;;;;123.35;48.33;;;;;;;5.35;100.00;103486.25;5037465;28;20524;-70
2022/01/23 01:00:22;;;;;;;125.75;47.13;;;;;;;5.37;100.00;103492.25;5019525;28;20095;-71
2022/01/23 01:02:49;;;;;;;121.32;47.08;;;;;;;5.45;100.00;103488.53;5016901;28;20133;-69
2022/01/23 01:05:15;;;;;;;120.80;47.45;;;;;;;5.42;100.00;103497.06;5018326;28;20120;-69
2022/01/23 01:07:41;;;;;;;123.63;47.42;;;;;;;5.39;100.00;103492.06;5018020;28;20601;-71
2022/01/23 01:10:14;;;;;;;132.57;50.17;;;;;;;5.34;100.00;103495.38;5033476;28;20052;-69
2022/01/23 01:12:44;;;;;;;133.77;50.05;;;;;;;5.39;100.00;103492.91;5018381;28;20040;-70
2022/01/23 01:31:30;;;;;;;131.57;48.97;;;;;;;5.47;100.00;103493.72;5035707;28;20447;-71
2022/01/23 01:34:03;;;;;;;149.45;51.53;;;;;;;5.39;100.00;103492.91;5050018;28;20029;-70
2022/01/23 01:36:47;;;;;;;135.48;51.10;;;;;;;5.35;100.00;103475.41;5033457;28;20045;-70
2022/01/23 01:39:16;;;;;;;138.05;51.38;;;;;;;5.31;100.00;103457.06;5035010;28;20120;-70
2022/01/23 01:41:43;;;;;;;145.38;52.65;;;;;;;5.26;100.00;103446.84;5034373;28;20043;-70
2022/01/23 01:44:09;;;;;;;142.23;53.38;;;;;;;5.35;100.00;103444.78;5034328;28;20033;-70
2022/01/23 01:46:53;;;;;;;152.27;52.33;;;;;;;5.35;100.00;103450.19;5036117;28;20141;-70
2022/01/23 01:49:27;;;;;;;143.40;53.90;;;;;;;5.34;100.00;103456.66;5034767;28;20037;-70
2022/01/23 01:51:55;;;;;;;155.77;55.05;;;;;;;5.45;100.00;103458.78;5034188;28;20152;-70
2022/01/23 01:54:23;;;;;;;147.23;55.85;;;;;;;5.41;100.00;103471.88;5034624;28;20068;-70
2022/01/23 01:56:52;;;;;;;151.65;52.72;;;;;;;5.38;100.00;103468.72;5034528;28;20041;-70
2022/01/23 02:10:36;;;;;;;153.25;55.72;;;;;;;5.25;100.00;103469.53;5015443;28;20048;-70
2022/01/23 02:13:10;;;;;;;156.25;55.97;;;;;;;5.36;100.00;103465.41;5032505;28;20397;-69
2022/01/23 02:18:32;;;;;;;152.88;54.63;;;;;;;5.35;100.00;103461.88;5015115;28;20073;-69
2022/01/23 02:56:36;;;;;;;137.32;51.10;;;;;;;5.36;100.00;103450.00;5034561;28;20053;-70
2022/01/23 02:59:19;;;;;;;155.55;53.67;;;;;;;5.40;100.00;103451.25;5027314;28;20080;-70
2022/01/23 03:02:01;;;;;;;143.88;51.03;;;;;;;5.43;100.00;103445.44;5014891;28;20136;-69
2022/01/23 03:04:52;;;;;;;161.40;55.05;;;;;;;5.27;100.00;103451.25;5016593;28;20092;-70
2022/01/23 03:10:10;;;;;;;148.13;53.35;;;;;;;5.39;100.00;103448.78;5017574;28;20942;-70
2022/01/23 03:15:58;;;;;;;157.20;52.20;;;;;;;5.34;100.00;103452.09;5019024;28;20440;-70
2022/01/23 03:26:33;;;;;;;138.98;52.63;;;;;;;5.41;100.00;103458.34;5040165;28;20037;-69
2022/01/23 03:31:43;;;;;;;144.23;53.20;;;;;;;5.54;100.00;103462.97;5039683;28;20037;-70
2022/01/23 03:34:10;;;;;;;130.87;50.07;;;;;;;5.59;100.00;103471.31;5039982;28;20051;-70
2022/01/23 03:36:37;;;;;;;146.35;52.30;;;;;;;5.58;100.00;103464.19;5039303;28;20045;-69
2022/01/23 03:39:06;;;;;;;148.48;51.22;;;;;;;5.55;100.00;103469.19;5039276;28;20047;-70
2022/01/23 03:41:36;;;;;;;139.55;50.80;;;;;;;5.67;100.00;103467.53;5038447;28;20470;-70
2022/01/23 03:44:04;;;;;;;137.77;49.90;;;;;;;5.68;100.00;103474.66;5037084;28;20370;-69
2022/01/23 03:46:46;;;;;;;144.10;50.92;;;;;;;5.61;100.00;103479.19;5037516;28;20048;-69
2022/01/23 03:49:34;;;;;;;135.40;50.13;;;;;;;5.48;100.00;103479.19;5038833;28;20033;-70
2022/01/23 03:52:08;;;;;;;125.00;47.47;;;;;;;5.56;100.00;103477.13;5039815;28;20067;-69
2022/01/23 03:54:36;;;;;;;146.27;52.70;;;;;;;5.57;100.00;103473.38;5043809;28;20064;-69
2022/01/23 03:57:03;;;;;;;133.18;49.58;;;;;;;5.63;100.00;103471.72;5044138;28;20047;-69
2022/01/23 03:59:32;;;;;;;133.23;46.85;;;;;;;5.49;100.00;103480.84;5027619;28;20591;-69
2022/01/23 04:01:57;;;;;;;124.65;46.58;;;;;;;5.51;100.00;103486.91;5018437;28;20042;-70
2022/01/23 04:04:37;;;;;;;138.73;51.03;;;;;;;5.45;100.00;103486.66;5018724;28;20509;-69
2022/01/23 04:07:06;;;;;;;135.38;49.65;;;;;;;5.42;100.00;103476.25;5019467;28;20534;-70
2022/01/23 04:09:32;;;;;;;152.02;50.30;;;;;;;5.36;100.00;103487.91;5020437;28;20364;-69
2022/01/23 04:11:59;;;;;;;145.00;50.30;;;;;;;5.33;100.00;103482.91;5020836;28;20112;-70
2022/01/23 04:14:26;;;;;;;136.00;49.80;;;;;;;5.45;100.00;103485.84;5020787;28;20037;-70
2022/01/23 04:19:38;;;;;;;142.48;49.45;;;;;;;5.44;100.00;103500.41;5028749;28;20504;-71
2022/01/23 04:33:49;;;;;;;146.27;51.33;;;;;;;5.58;100.00;103493.16;5039475;28;20041;-69
2022/01/23 05:00:36;;;;;;;144.77;52.42;;;;;;;5.45;100.00;103492.06;5018221;28;20133;-70
2022/01/23 05:03:48;;;;;;;152.52;54.13;;;;;;;5.45;100.00;103478.56;5017865;28;20045;-70
2022/01/23 05:06:10;;;;;;;147.38;54.08;;;;;;;5.37;100.00;103486.84;5016741;28;20124;-70
2022/01/23 05:08:48;;;;;;;140.05;53.25;;;;;;;5.48;100.00;103488.13;5015572;28;20133;-70
2022/01/23 05:11:30;;;;;;;150.70;53.38;;;;;;;5.47;100.00;103493.72;5015583;28;20037;-70
2022/01/23 05:14:04;;;;;;;150.55;53.53;;;;;;;5.44;100.00;103493.13;5031527;28;20036;-70
2022/01/23 05:16:32;;;;;;;154.90;55.03;;;;;;;5.41;100.00;103496.25;5014909;28;20376;-70
2022/01/23 05:18:58;;;;;;;138.38;49.75;;;;;;;5.43;100.00;103494.16;5018872;28;20101;-70
2022/01/23 05:23:55;;;;;;;149.63;53.70;;;;;;;5.34;100.00;103495.38;5034985;28;20049;-70
2022/01/23 05:26:21;;;;;;;144.80;53.47;;;;;;;5.34;100.00;103500.78;5035950;28;20074;-69
2022/01/23 05:28:46;;;;;;;162.32;55.42;;;;;;;5.41;100.00;103509.78;5051562;28;20485;-69
2022/01/23 05:31:11;;;;;;;137.63;49.88;;;;;;;5.38;100.00;103506.63;5037238;28;20045;-70
2022/01/23 05:33:37;;;;;;;146.40;52.67;;;;;;;5.45;100.00;103502.91;5036841;28;20138;-69
2022/01/23 05:36:04;;;;;;;138.27;52.25;;;;;;;5.39;100.00;103509.13;5035199;28;20044;-70
2022/01/23 05:38:33;;;;;;;145.60;52.75;;;;;;;5.39;100.00;103505.59;5035444;28;20044;-70
2022/01/23 05:41:00;;;;;;;142.40;52.13;;;;;;;5.52;100.00;103502.09;5037703;28;20124;-70
2022/01/23 05:43:27;;;;;;;154.00;52.63;;;;;;;5.45;100.00;103500.19;5047479;28;20033;-70
2022/01/23 05:45:53;;;;;;;144.48;52.53;;;;;;;5.49;100.00;103502.50;5047218;28;20048;-70
2022/01/23 05:48:50;;;;;;;147.07;51.45;;;;;;;5.51;100.00;103505.84;5020869;28;20051;-69
2022/01/23 05:51:35;;;;;;;132.15;49.53;;;;;;;5.38;100.00;103504.78;5046371;28;20222;-70
2022/01/23 05:54:03;;;;;;;153.77;51.35;;;;;;;5.42;100.00;103499.78;5051110;28;20044;-70
2022/01/23 05:56:33;;;;;;;148.60;54.20;;;;;;;5.37;100.00;103504.97;5037838;28;20420;-70
2022/01/23 05:59:12;;;;;;;142.85;52.78;;;;;;;5.36;100.00;103500.59;5070190;28;20052;-69
2022/01/23 06:01:44;;;;;;;147.07;50.30;;;;;;;5.46;100.00;103498.31;5071079;28;20109;-70
2022/01/23 06:04:13;;;;;;;143.68;52.25;;;;;;;5.38;100.00;103510.19;5038521;28;20040;-69
2022/01/23 06:06:59;;;;;;;142.32;49.40;;;;;;;5.40;100.00;103510.78;5019617;28;20552;-69
2022/01/23 06:09:26;;;;;;;136.60;50.03;;;;;;;5.35;100.00;103512.44;5045518;28;20638;-69
2022/01/23 06:11:53;;;;;;;149.75;52.20;;;;;;;5.38;100.00;103506.63;5046778;28;20040;-70
2022/01/23 06:14:19;;;;;;;152.60;51.83;;;;;;;5.41;100.00;103512.47;5037892;28;20043;-70
2022/01/23 06:16:45;;;;;;;145.80;51.55;;;;;;;5.39;100.00;103509.13;5023341;28;20556;-70
2022/01/23 06:19:42;;;;;;;140.85;51.70;;;;;;;5.43;100.00;103509.56;5035878;28;20049;-69
2022/01/23 06:22:45;;;;;;;148.90;50.92;;;;;;;5.51;100.00;103505.84;5038750;28;20071;-70
2022/01/23 06:25:35;;;;;;;138.50;48.75;;;;;;;5.42;100.00;103503.31;5014291;28;20045;-70
2022/01/23 06:28:06;;;;;;;136.35;49.08;;;;;;;5.47;100.00;103512.69;5048491;28;20040;-70
2022/01/23 06:30:33;;;;;;;152.73;51.92;;;;;;;5.43;100.00;103521.22;5054984;28;20037;-70
2022/01/23 06:32:59;;;;;;;147.77;50.63;;;;;;;5.38;100.00;103518.31;5049570;28;20076;-70
2022/01/23 06:35:25;;;;;;;133.60;49.13;;;;;;;5.41;100.00;103512.47;5043938;28;20201;-69
2022/01/23 06:37:51;;;;;;;143.75;49.50;;;;;;;5.47;100.00;103515.38;5059319;28;20045;-70
2022/01/23 06:40:17;;;;;;;147.38;52.83;;;;;;;5.33;100.00;103515.38;5053394;28;20540;-69
2022/01/23 06:43:05;;;;;;;142.48;50.28;;;;;;;5.42;100.00;103514.13;5013541;28;20060;-70
2022/01/23 06:45:40;;;;;;;146.07;51.53;;;;;;;5.12;100.00;103526.28;5038471;28;20552;-69
2022/01/23 06:48:05;;;;;;;148.02;52.42;;;;;;;5.32;100.00;103534.50;5053824;28;20058;-69
2022/01/23 06:50:31;;;;;;;152.32;53.35;;;;;;;5.34;100.00;103535.97;5059380;28;20389;-70
2022/01/23 06:52:57;;;;;;;151.23;53.13;;;;;;;5.39;100.00;103532.66;5053201;28;20029;-70
2022/01/23 06:55:22;;;;;;;164.43;53.03;;;;;;;5.11;100.00;103532.75;5036705;28;20041;-70
2022/01/23 06:57:51;;;;;;;160.23;53.95;;;;;;;5.10;100.00;103550.00;5044190;28;20048;-69
2022/01/23 07:00:17;;;;;;;151.80;54.65;;;;;;;5.36;100.00;103542.00;5074300;28;20089;-70
2022/01/23 07:03:01;;;;;;;146.35;50.95;;;;;;;5.36;100.00;103539.31;5031962;28;20059;-69
2022/01/23 07:05:45;;;;;;;144.45;50.60;;;;;;;5.42;100.00;103541.19;5047691;28;20098;-69
2022/01/23 07:08:18;;;;;;;131.05;48.78;;;;;;;5.45;100.00;103546.19;5054255;28;20044;-70
2022/01/23 07:10:51;;;;;;;144.13;48.35;;;;;;;5.15;100.00;103550.25;5057263;28;20493;-69
2022/01/23 07:13:26;;;;;;;145.88;50.75;;;;;;;5.19;100.00;103546.94;5074513;28;20060;-70
2022/01/23 07:16:10;;;;;;;139.02;48.95;;;;;;;5.37;100.00;103549.09;5058558;28;20126;-70
2022/01/23 07:19:11;;;;;;;160.38;53.00;;;;;;;5.33;100.00;103553.25;4992714;28;20436;-70
2022/01/23 07:21:43;;;;;;;149.25;51.85;;;;;;;5.33;100.00;103561.34;5024707;28;20059;-70
2022/01/23 07:24:09;;;;;;;145.45;49.13;;;;;;;5.28;100.00;103553.00;5037485;28;20029;-69
2022/01/23 07:26:36;;;;;;;136.55;47.13;;;;;;;5.34;100.00;103560.31;5054635;28;20045;-70
2022/01/23 07:29:04;;;;;;;130.23;46.80;;;;;;;5.39;100.00;103557.84;5038141;28;20069;-69
2022/01/23 07:34:00;;;;;;;137.82;47.55;;;;;;;5.38;100.00;103567.00;5039730;28;20094;-69
2022/01/23 07:36:25;;;;;;;125.25;48.00;;;;;;;5.38;100.00;103571.56;5037052;28;20036;-70
2022/01/23 07:38:51;;;;;;;140.88;49.13;;;;;;;5.34;100.00;103571.13;5053865;28;20068;-69
2022/01/23 07:41:26;;;;;;;125.72;43.03;;;;;;;5.33;100.00;103571.34;5037068;28;20041;-70
2022/01/23 07:43:58;;;;;;;123.53;44.63;;;;;;;5.29;100.00;103573.59;5036809;28;20034;-70
2022/01/23 07:46:44;;;;;;;130.50;45.53;;;;;;;5.28;100.00;103582.75;5038520;28;20051;-70
2022/01/23 07:49:32;;;;;;;140.00;47.55;;;;;;;5.22;100.00;103583.56;5053808;28;20060;-70
2022/01/23 07:52:09;;;;;;;145.30;50.13;;;;;;;5.23;100.00;103585.22;5053289;28;20067;-70
2022/01/23 07:54:48;;;;;;;145.38;51.15;;;;;;;5.37;100.00;103594.25;5035956;28;20029;-69
2022/01/23 07:57:25;;;;;;;131.18;47.25;;;;;;;5.18;100.00;103599.38;5033604;28;20041;-69
2022/01/23 08:00:16;;;;;;;139.63;47.05;;;;;;;5.15;100.00;103607.06;5035543;28;20040;-70
2022/01/23 08:02:42;;;;;;;133.88;47.42;;;;;;;5.13;100.00;103601.84;5037999;28;20102;-70
2022/01/23 08:05:27;;;;;;;133.73;48.88;;;;;;;5.31;100.00;103598.59;5038169;28;20547;-69
2022/01/23 08:08:12;;;;;;;158.52;51.22;;;;;;;5.23;100.00;103612.28;5006692;28;20045;-69
2022/01/23 08:11:08;;;;;;;136.43;50.30;;;;;;;5.25;100.00;103604.81;5026785;28;20069;-69
2022/01/23 08:13:33;;;;;;;141.98;49.35;;;;;;;5.18;100.00;103603.94;5038158;28;20061;-69
2022/01/23 08:16:00;;;;;;;139.00;50.33;;;;;;;5.20;100.00;103604.56;5038429;28;20056;-70
2022/01/23 08:18:25;;;;;;;141.25;50.85;;;;;;;5.33;100.00;103611.94;5038276;28;20537;-70
2022/01/23 08:20:51;;;;;;;134.50;50.00;;;;;;;5.40;100.00;103613.63;5037976;28;20077;-70
2022/01/23 08:23:17;;;;;;;130.05;48.80;;;;;;;5.59;100.00;103603.09;5037776;28;20039;-70
2022/01/23 08:25:43;;;;;;;130.52;48.67;;;;;;;5.56;100.00;103606.22;5037981;28;20518;-70
2022/01/23 08:28:08;;;;;;;136.30;48.25;;;;;;;5.67;100.00;103600.19;5035983;28;20064;-69
2022/01/23 08:30:34;;;;;;;139.35;48.70;;;;;;;5.67;100.00;103609.19;5037954;28;20397;-70
2022/01/23 08:32:59;;;;;;;133.85;47.70;;;;;;;5.77;100.00;103614.19;5037033;28;20036;-70
2022/01/23 08:35:26;;;;;;;138.73;49.22;;;;;;;5.79;100.00;103613.97;5036799;28;20041;-70
2022/01/23 08:37:52;;;;;;;134.32;48.53;;;;;;;5.75;100.00;103613.56;5037179;28;20443;-70
2022/01/23 08:40:22;;;;;;;140.13;49.63;;;;;;;5.87;100.00;103614.63;5037264;28;20033;-69
2022/01/23 08:42:48;;;;;;;133.98;47.88;;;;;;;5.85;100.00;103621.31;5037249;28;20036;-70
2022/01/23 08:45:14;;;;;;;132.55;47.40;;;;;;;5.88;100.00;103620.91;5034195;28;20049;-69
2022/01/23 08:47:40;;;;;;;124.38;46.25;;;;;;;5.93;100.00;103617.56;5038186;28;20473;-69
2022/01/23 08:50:06;;;;;;;138.00;50.45;;;;;;;5.98;100.00;103621.38;5049444;28;20509;-70
2022/01/23 08:52:31;;;;;;;140.50;48.90;;;;;;;5.98;100.00;103615.13;5037826;28;20139;-69
2022/01/23 08:54:56;;;;;;;137.38;49.42;;;;;;;6.02;100.00;103621.78;5042675;28;20044;-69
2022/01/23 08:57:24;;;;;;;134.52;50.83;;;;;;;5.92;100.00;103613.22;5030116;28;20055;-69
2022/01/23 08:59:50;;;;;;;135.52;50.90;;;;;;;5.92;100.00;103613.22;5023477;28;20045;-70
2022/01/23 09:02:18;;;;;;;142.18;49.13;;;;;;;6.11;100.00;103620.59;5036513;28;20393;-69
2022/01/23 09:04:47;;;;;;;128.32;49.53;;;;;;;6.14;100.00;103617.47;5043591;28;20048;-70
2022/01/23 09:07:13;;;;;;;143.27;50.92;;;;;;;5.99;100.00;103616.78;5044042;28;20527;-70
2022/01/23 09:09:40;;;;;;;141.55;48.90;;;;;;;6.07;100.00;103612.00;5051311;28;20044;-69
2022/01/23 09:12:21;;;;;;;142.20;51.03;;;;;;;6.08;100.00;103621.00;5037523;28;20144;-69
2022/01/23 09:14:46;;;;;;;153.05;54.95;;;;;;;6.15;100.00;103616.41;5045043;28;20083;-70
2022/01/23 09:17:12;;;;;;;153.93;54.10;;;;;;;6.15;100.00;103621.84;5043667;28;20152;-70
2022/01/23 09:19:39;;;;;;;141.07;52.70;;;;;;;6.25;100.00;103622.25;5044073;28;20029;-70
2022/01/23 09:22:04;;;;;;;155.23;55.10;;;;;;;6.15;100.00;103623.72;5052398;28;20040;-70
2022/01/23 09:24:30;;;;;;;148.80;54.17;;;;;;;6.21;100.00;103623.72;5042068;28;20067;-70
2022/01/23 09:27:02;;;;;;;147.68;53.30;;;;;;;6.13;100.00;103621.19;5047259;28;20124;-69
2022/01/23 09:29:33;;;;;;;149.65;54.75;;;;;;;6.11;100.00;103626.00;5050417;28;20044;-70
2022/01/23 09:31:59;;;;;;;144.65;52.05;;;;;;;6.11;100.00;103626.00;5040215;28;20091;-70
2022/01/23 09:34:33;;;;;;;149.90;55.80;;;;;;;6.20;100.00;103627.47;5037346;28;20123;-70
2022/01/23 09:37:01;;;;;;;148.25;53.30;;;;;;;6.24;100.00;103628.72;5034234;28;20033;-69
2022/01/23 09:39:27;;;;;;;134.88;52.10;;;;;;;6.44;100.00;103620.63;5035492;28;20033;-69
2022/01/23 09:42:14;;;;;;;134.18;50.72;;;;;;;6.33;100.00;103622.06;5034558;28;20041;-69
2022/01/23 09:44:52;;;;;;;127.47;49.65;;;;;;;6.49;100.00;103631.69;5034717;28;20048;-70
2022/01/23 09:47:20;;;;;;;122.43;46.65;;;;;;;6.46;100.00;103633.97;5044564;28;20045;-70
2022/01/23 09:49:47;;;;;;;126.75;47.28;;;;;;;6.66;100.00;103640.25;5046910;28;20036;-70
2022/01/23 09:52:14;;;;;;;126.70;49.33;;;;;;;6.49;100.00;103633.56;5044061;28;20154;-69
2022/01/23 09:54:42;;;;;;;116.22;49.13;;;;;;;6.62;100.00;103641.69;5041355;28;20462;-70
2022/01/23 09:57:10;;;;;;;128.60;49.67;;;;;;;6.62;100.00;103638.16;5035447;28;20572;-69
2022/01/23 09:59:36;;;;;;;120.05;47.50;;;;;;;6.70;100.00;103638.78;5049639;28;20040;-70
2022/01/23 10:02:03;;;;;;;116.07;46.40;;;;;;;6.73;100.00;103632.94;5051060;28;20063;-70
2022/01/23 10:04:30;;;;;;;110.68;46.85;;;;;;;6.54;100.00;103640.03;5050871;28;20041;-69
2022/01/23 10:06:56;;;;;;;114.95;46.00;;;;;;;6.49;100.00;103639.81;5054215;28;20072;-70
2022/01/23 10:09:24;;;;;;;107.93;45.00;;;;;;;6.69;100.00;103641.69;5055265;28;20086;-69
2022/01/23 10:11:50;;;;;;;113.03;45.67;;;;;;;6.56;100.00;103639.81;5055830;28;20561;-69
2022/01/23 10:14:18;;;;;;;114.93;47.80;;;;;;;6.59;100.00;103633.97;5054102;28;20037;-70
2022/01/23 10:16:44;;;;;;;110.38;45.22;;;;;;;6.74;100.00;103640.00;5056377;28;20141;-70
2022/01/23 10:19:10;;;;;;;106.55;43.20;;;;;;;6.78;100.00;103648.59;5059142;28;20052;-69
2022/01/23 10:21:38;;;;;;;115.45;45.22;;;;;;;6.82;100.00;103640.84;5044413;28;20045;-70
2022/01/23 10:24:05;;;;;;;105.55;45.67;;;;;;;6.85;100.00;103640.44;5047242;28;20492;-70
2022/01/23 10:26:53;;;;;;;104.38;44.47;;;;;;;6.97;100.00;103639.56;5046179;28;20040;-70
2022/01/23 10:29:32;;;;;;;108.78;44.70;;;;;;;6.91;100.00;103647.72;5046195;28;20037;-70
2022/01/23 10:32:18;;;;;;;114.75;45.08;;;;;;;6.88;100.00;103650.88;5049613;28;20033;-70
2022/01/23 10:34:51;;;;;;;113.70;46.00;;;;;;;6.87;100.00;103657.34;5047099;28;20048;-70
2022/01/23 10:37:26;;;;;;;115.90;47.80;;;;;;;6.79;100.00;103651.06;5043240;28;20060;-69
2022/01/23 10:39:52;;;;;;;117.72;46.38;;;;;;;6.87;100.00;103652.75;5049818;28;20040;-69
2022/01/23 10:47:59;;;;;;;102.95;43.78;;;;;;;7.09;100.00;103637.06;5043385;28;20160;-71
2022/01/23 10:50:25;;;;;;;109.88;44.58;;;;;;;7.05;100.00;103638.53;5045247;28;20063;-69
2022/01/23 10:52:51;;;;;;;110.18;45.15;;;;;;;7.15;100.00;103633.50;5041934;28;20557;-70
2022/01/23 10:55:19;;;;;;;108.55;43.45;;;;;;;7.22;100.00;103634.31;5041345;28;20650;-69
2022/01/23 10:57:47;;;;;;;108.30;44.25;;;;;;;7.23;100.00;103630.56;5053088;28;20143;-69
2022/01/23 11:00:39;;;;;;;103.38;42.90;;;;;;;7.31;100.00;103631.38;5039869;28;20075;-70
2022/01/23 11:03:24;;;;;;;98.07;40.75;;;;;;;7.15;100.00;103633.50;5045972;28;20052;-69
2022/01/23 11:05:52;;;;;;;97.18;42.67;;;;;;;7.20;100.00;103625.56;5052911;28;20044;-70
2022/01/23 11:08:29;;;;;;;84.20;37.08;;;;;;;7.16;100.00;103629.75;5041908;28;20194;-70
2022/01/23 11:10:59;;;;;;;77.57;35.28;;;;;;;7.25;100.00;103628.47;5049100;28;20678;-70
2022/01/23 11:19:21;;;;;;;84.25;37.97;;;;;;;7.47;100.00;103614.59;5037699;28;20618;-69
2022/01/23 11:21:47;;;;;;;94.53;40.50;;;;;;;7.28;100.00;103613.63;5053163;28;20071;-70
2022/01/23 11:24:14;;;;;;;96.90;40.95;;;;;;;6.99;100.00;103613.06;5039944;28;20258;-72
2022/01/23 11:26:40;;;;;;;87.50;39.75;;;;;;;7.25;100.00;103616.78;5036806;28;20041;-68
2022/01/23 11:29:17;;;;;;;83.78;37.40;;;;;;;7.48;100.00;103611.69;5046934;28;20082;-69
2022/01/23 11:31:44;;;;;;;84.28;37.80;;;;;;;7.49;100.00;103613.34;5039906;28;20095;-68
2022/01/23 11:34:12;;;;;;;79.85;35.55;;;;;;;7.36;100.00;103613.41;5053750;28;20415;-69
2022/01/23 11:36:38;;;;;;;80.22;36.08;;;;;;;7.32;100.00;103609.44;5050340;28;20037;-69
2022/01/23 11:39:12;;;;;;;86.18;37.17;;;;;;;7.39;100.00;103612.16;5036268;28;20052;-69
2022/01/23 11:56:42;;;;;;;75.18;33.20;;;;;;;7.36;100.00;103607.97;5035282;28;20122;-69
2022/01/23 11:59:33;;;;;;;79.15;35.10;;;;;;;7.16;100.00;103608.03;5016699;28;20059;-69
2022/01/23 12:02:20;;;;;;;72.80;32.58;;;;;;;7.34;100.00;103603.81;5037271;28;20095;-69
2022/01/23 12:05:25;;;;;;;67.93;30.13;;;;;;;7.43;100.00;103600.63;5034311;28;20611;-69
2022/01/23 12:08:28;;;;;;;64.32;29.63;;;;;;;7.55;100.00;103592.66;4992733;28;20037;-68
2022/01/23 12:16:34;;;;;;;58.67;27.27;;;;;;;7.64;100.00;103579.66;5023929;28;20520;-68
2022/01/23 12:19:20;;;;;;;52.03;24.50;;;;;;;7.62;100.00;103579.88;5043365;28;20052;-68
2022/01/23 12:21:47;;;;;;;53.15;24.70;;;;;;;7.54;100.00;103576.59;5031907;28;20044;-68
2022/01/23 12:24:15;;;;;;;59.00;25.65;;;;;;;7.85;100.00;103579.34;5039389;28;20139;-68
2022/01/23 12:26:44;;;;;;;54.63;24.95;;;;;;;7.65;100.00;103579.44;5048795;28;20028;-69
2022/01/23 12:29:14;;;;;;;54.40;25.17;;;;;;;7.53;100.00;103574.91;5047367;28;20041;-69
2022/01/23 12:31:41;;;;;;;53.15;25.75;;;;;;;7.79;100.00;103574.75;5040912;28;20037;-68
2022/01/23 12:34:06;;;;;;;56.15;26.27;;;;;;;7.76;100.00;103574.38;5054317;28;20500;-70
2022/01/23 12:36:34;;;;;;;51.08;23.02;;;;;;;7.59;100.00;103574.88;5054801;28;20056;-73
2022/01/23 12:39:08;;;;;;;49.92;21.45;;;;;;;7.23;100.00;103576.28;5065530;28;20123;-69
2022/01/23 12:41:40;;;;;;;48.83;22.08;;;;;;;7.29;100.00;103568.31;5047292;28;20639;-69
2022/01/23 12:44:07;;;;;;;44.45;21.23;;;;;;;7.33;100.00;103572.25;5054755;28;20040;-69
2022/01/23 12:46:34;;;;;;;43.47;19.42;;;;;;;7.14;100.00;103566.69;5059781;28;20115;-69
2022/01/23 12:49:16;;;;;;;37.70;18.40;;;;;;;7.20;100.00;103565.84;5046803;28;20051;-69
2022/01/23 12:51:43;;;;;;;38.97;19.48;;;;;;;7.35;100.00;103562.88;5041914;28;20399;-69
2022/01/23 12:54:12;;;;;;;46.53;21.17;;;;;;;7.22;100.00;103558.34;5041700;28;20080;-69
2022/01/23 12:56:42;;;;;;;40.30;20.50;;;;;;;7.48;100.00;103557.38;5039190;28;20040;-69
2022/01/23 12:59:12;;;;;;;42.33;21.33;;;;;;;7.82;100.00;103559.91;5046173;28;20044;-70
2022/01/23 13:01:42;;;;;;;60.20;26.27;;;;;;;7.36;100.00;103552.84;5036276;28;20041;-73
2022/01/23 13:04:08;;;;;;;50.03;23.67;;;;;;;7.30;100.00;103548.28;5035967;28;20655;-69
2022/01/23 13:06:38;;;;;;;38.20;18.70;;;;;;;7.14;100.00;103550.41;5034804;28;20037;-69
2022/01/23 13:09:18;;;;;;;42.53;19.13;;;;;;;7.45;100.00;103551.56;5035553;28;20043;-69
2022/01/23 13:12:04;;;;;;;41.05;19.25;;;;;;;7.59;100.00;103546.88;5035019;28;20045;-69
2022/01/23 13:14:39;;;;;;;43.80;19.92;;;;;;;7.83;100.00;103550.72;5035918;28;20032;-70
2022/01/23 13:29:00;;;;;;;30.00;14.73;;;;;;;7.24;100.00;103548.09;5046740;28;20110;-70
2022/01/23 13:30:54;;;;;;;33.38;14.82;;;;;;;7.42;100.00;103552.00;5043789;28;20065;-69
2022/01/23 13:33:22;;;;;;;32.72;14.75;;;;;;;7.53;100.00;103551.28;5048596;28;20040;-68
2022/01/23 13:35:52;;;;;;;27.48;13.93;;;;;;;7.49;100.00;103552.78;5039112;28;20044;-69
2022/01/23 13:38:21;;;;;;;18.52;9.52;;;;;;;7.43;100.00;103549.06;5019872;28;20076;-69
2022/01/23 13:40:57;;;;;;;21.40;10.68;;;;;;;7.59;100.00;103546.88;5040156;28;20032;-69
2022/01/23 13:59:46;;;;;;;24.90;12.38;;;;;;;7.20;100.00;103544.13;5038469;28;20067;-69
2022/01/23 14:02:18;;;;;;;20.77;11.57;;;;;;;7.29;100.00;103543.91;5051256;28;20521;-69
2022/01/23 14:04:49;;;;;;;;;;;;;;;7.30;100.00;103543.69;5041006;28;20481;-69
2022/01/23 14:07:23;;;;;;;20.30;10.45;;;;;;;7.13;100.00;103543.34;5042962;28;20323;-69
2022/01/23 14:09:50;;;;;;;21.48;11.13;;;;;;;7.17;100.00;103533.72;5050505;28;21039;-69
2022/01/23 14:12:18;;;;;;;19.33;9.90;;;;;;;7.08;100.00;103545.03;5039298;28;20056;-69
2022/01/23 14:14:52;;;;;;;20.25;10.25;;;;;;;7.14;100.00;103542.28;5047755;28;20246;-68
2022/01/23 14:17:18;;;;;;;15.40;9.25;;;;;;;7.19;100.00;103537.06;5047675;28;20127;-69
2022/01/23 14:19:59;;;;;;;16.63;9.35;;;;;;;7.15;100.00;103530.38;5053807;28;20463;-69
2022/01/23 14:22:27;;;;;;;16.17;8.55;;;;;;;7.22;100.00;103544.75;5033931;28;20131;-70
2022/01/23 14:24:52;;;;;;;16.95;8.32;;;;;;;7.18;100.00;103535.38;5035943;28;20481;-69
2022/01/23 14:27:21;;;;;;;18.05;8.77;;;;;;;7.15;100.00;103537.69;5048525;28;20207;-69
2022/01/23 14:29:53;;;;;;;14.57;8.07;;;;;;;7.14;100.00;103539.56;5038995;28;20119;-69
2022/01/23 14:32:36;;;;;;;13.45;7.82;;;;;;;7.17;100.00;103539.13;5024161;28;20131;-69
2022/01/23 14:35:14;;;;;;;14.10;7.88;;;;;;;7.00;100.00;103544.19;5046106;28;20128;-69
2022/01/23 14:37:41;;;;;;;14.25;7.88;;;;;;;7.02;100.00;103535.84;5051195;28;20155;-69
2022/01/23 14:40:27;;;;;;;15.05;8.27;;;;;;;7.10;100.00;103542.91;5053858;28;20084;-69
2022/01/23 14:43:01;;;;;;;13.77;6.85;;;;;;;7.09;100.00;103542.09;5046985;28;20450;-69